createdAt,value
2018-06-11T00:00:47.409Z,951.01
2018-06-11T00:01:47.403Z,951
2018-06-11T00:02:47.400Z,950.98
2018-06-11T00:03:47.395Z,950.93
2018-06-11T00:04:47.392Z,950.93
2018-06-11T00:05:47.388Z,950.92
2018-06-11T00:06:47.384Z,950.96
2018-06-11T00:07:47.381Z,950.95
2018-06-11T00:08:47.375Z,950.94
2018-06-11T00:09:47.371Z,950.97
2018-06-11T00:10:47.367Z,950.94
2018-06-11T00:11:47.362Z,950.93
2018-06-11T00:12:47.357Z,950.97
2018-06-11T00:13:47.353Z,950.98
2018-06-11T00:14:47.350Z,951.01
2018-06-11T00:15:47.345Z,951.02
2018-06-11T00:16:47.341Z,950.98
2018-06-11T00:17:47.338Z,951.03
2018-06-11T00:18:47.331Z,951.03
2018-06-11T00:19:47.328Z,951.01
2018-06-11T00:20:47.324Z,950.97
2018-06-11T00:21:47.320Z,951.01
2018-06-11T00:22:47.314Z,950.96
2018-06-11T00:23:47.311Z,950.99
2018-06-11T00:24:47.307Z,951
2018-06-11T00:25:47.303Z,950.98
2018-06-11T00:26:47.299Z,951
2018-06-11T00:27:47.295Z,950.99
2018-06-11T00:28:47.290Z,950.98
2018-06-11T00:29:47.285Z,950.94
2018-06-11T00:30:47.282Z,950.95
2018-06-11T00:31:47.276Z,950.96
2018-06-11T00:32:47.273Z,950.94
2018-06-11T00:33:47.270Z,950.94
2018-06-11T00:34:47.265Z,950.9
2018-06-11T00:35:47.260Z,950.9
2018-06-11T00:36:47.256Z,950.86
2018-06-11T00:37:47.252Z,950.86
2018-06-11T00:38:47.249Z,950.87
2018-06-11T00:39:47.243Z,950.9
2018-06-11T00:40:47.240Z,950.9
2018-06-11T00:41:47.234Z,950.86
2018-06-11T00:42:47.229Z,950.88
2018-06-11T00:43:47.225Z,950.88
2018-06-11T00:44:47.219Z,950.87
2018-06-11T00:45:47.217Z,950.87
2018-06-11T00:46:47.212Z,950.84
2018-06-11T00:47:47.207Z,950.82
2018-06-11T00:48:47.204Z,950.85
2018-06-11T00:49:47.199Z,950.85
2018-06-11T00:50:47.196Z,950.84
2018-06-11T00:51:47.190Z,950.83
2018-06-11T00:52:47.187Z,950.83
2018-06-11T00:53:47.183Z,950.8
2018-06-11T00:54:47.177Z,950.8
2018-06-11T00:55:47.185Z,950.78
2018-06-11T00:56:47.169Z,950.77
2018-06-11T00:57:47.166Z,950.78
2018-06-11T00:58:47.160Z,950.72
2018-06-11T00:59:47.192Z,950.75
2018-06-11T01:00:47.151Z,950.76
2018-06-11T01:01:47.147Z,950.75
2018-06-11T01:02:47.142Z,950.76
2018-06-11T01:03:47.142Z,950.79
2018-06-11T01:04:47.134Z,950.82
2018-06-11T01:05:47.129Z,950.8
2018-06-11T01:06:47.125Z,950.81
2018-06-11T01:07:47.122Z,950.82
2018-06-11T01:08:47.118Z,950.79
2018-06-11T01:09:47.111Z,950.82
2018-06-11T01:10:47.109Z,950.8
2018-06-11T01:11:47.103Z,950.76
2018-06-11T01:12:47.103Z,950.76
2018-06-11T01:13:47.094Z,950.79
2018-06-11T01:14:47.090Z,950.75
2018-06-11T01:15:47.087Z,950.77
2018-06-11T01:16:47.081Z,950.83
2018-06-11T01:17:47.077Z,950.8
2018-06-11T01:18:47.072Z,950.83
2018-06-11T01:19:47.068Z,950.81
2018-06-11T01:20:47.063Z,950.79
2018-06-11T01:21:47.059Z,950.75
2018-06-11T01:22:47.056Z,950.79
2018-06-11T01:23:47.051Z,950.77
2018-06-11T01:24:47.046Z,950.76
2018-06-11T01:25:47.041Z,950.73
2018-06-11T01:26:47.040Z,950.75
2018-06-11T01:27:47.033Z,950.72
2018-06-11T01:28:47.027Z,950.74
2018-06-11T01:29:47.023Z,950.73
2018-06-11T01:30:47.020Z,950.74
2018-06-11T01:31:47.014Z,950.78
2018-06-11T01:32:47.010Z,950.75
2018-06-11T01:33:47.007Z,950.76
2018-06-11T01:34:47.002Z,950.74
2018-06-11T01:35:46.998Z,950.73
2018-06-11T01:36:46.995Z,950.72
2018-06-11T01:37:46.989Z,950.68
2018-06-11T01:38:46.984Z,950.66
2018-06-11T01:39:46.980Z,950.64
2018-06-11T01:40:46.978Z,950.62
2018-06-11T01:41:46.970Z,950.55
2018-06-11T01:42:46.965Z,950.59
2018-06-11T01:43:46.961Z,950.59
2018-06-11T01:44:46.958Z,950.56
2018-06-11T01:45:46.959Z,950.62
2018-06-11T01:46:46.948Z,950.61
2018-06-11T01:47:46.945Z,950.67
2018-06-11T01:48:46.940Z,950.64
2018-06-11T01:49:46.935Z,950.66
2018-06-11T01:50:46.931Z,950.65
2018-06-11T01:51:46.926Z,950.7
2018-06-11T01:52:46.922Z,950.65
2018-06-11T01:53:46.916Z,950.64
2018-06-11T01:54:46.913Z,950.62
2018-06-11T01:55:46.909Z,950.66
2018-06-11T01:56:46.905Z,950.65
2018-06-11T01:57:46.901Z,950.68
2018-06-11T01:58:46.894Z,950.67
2018-06-11T01:59:46.894Z,950.72
2018-06-11T02:00:46.887Z,950.76
2018-06-11T02:01:46.881Z,950.76
2018-06-11T02:02:46.879Z,950.8
2018-06-11T02:03:46.872Z,950.78
2018-06-11T02:04:46.869Z,950.81
2018-06-11T02:05:46.863Z,950.8
2018-06-11T02:06:46.859Z,950.83
2018-06-11T02:07:46.853Z,950.8
2018-06-11T02:08:46.849Z,950.83
2018-06-11T02:09:46.845Z,950.81
2018-06-11T02:10:46.841Z,950.81
2018-06-11T02:11:46.837Z,950.83
2018-06-11T02:12:46.831Z,950.86
2018-06-11T02:13:46.824Z,950.9
2018-06-11T02:14:46.821Z,950.87
2018-06-11T02:15:46.815Z,950.92
2018-06-11T02:16:46.811Z,950.89
2018-06-11T02:17:46.807Z,950.91
2018-06-11T02:18:46.799Z,950.91
2018-06-11T02:19:46.795Z,950.9
2018-06-11T02:20:46.790Z,950.85
2018-06-11T02:21:46.786Z,950.83
2018-06-11T02:22:46.784Z,950.83
2018-06-11T02:23:46.776Z,950.87
2018-06-11T02:24:46.771Z,950.86
2018-06-11T02:25:46.767Z,950.85
2018-06-11T02:26:46.766Z,950.92
2018-06-11T02:27:46.755Z,950.88
2018-06-11T02:28:46.750Z,950.89
2018-06-11T02:29:46.749Z,950.86
2018-06-11T02:30:46.741Z,950.86
2018-06-11T02:31:46.736Z,950.9
2018-06-11T02:32:46.742Z,950.88
2018-06-11T02:33:46.724Z,950.87
2018-06-11T02:34:46.721Z,950.85
2018-06-11T02:35:46.717Z,950.87
2018-06-11T02:36:46.712Z,950.81
2018-06-11T02:37:46.705Z,950.84
2018-06-11T02:38:46.700Z,950.81
2018-06-11T02:39:46.696Z,950.84
2018-06-11T02:40:46.690Z,950.81
2018-06-11T02:41:46.686Z,950.83
2018-06-11T02:42:46.684Z,950.87
2018-06-11T02:43:46.676Z,950.81
2018-06-11T02:44:46.672Z,950.83
2018-06-11T02:45:46.666Z,950.79
2018-06-11T02:46:46.663Z,950.83
2018-06-11T02:47:46.658Z,950.82
2018-06-11T02:48:46.652Z,950.87
2018-06-11T02:49:46.648Z,950.86
2018-06-11T02:50:46.644Z,950.88
2018-06-11T02:51:46.637Z,950.85
2018-06-11T02:52:46.634Z,950.84
2018-06-11T02:53:46.628Z,950.85
2018-06-11T02:54:46.625Z,950.86
2018-06-11T02:55:46.623Z,950.88
2018-06-11T02:56:46.613Z,950.86
2018-06-11T02:57:46.608Z,950.87
2018-06-11T02:58:46.605Z,950.86
2018-06-11T02:59:46.599Z,950.85
2018-06-11T03:00:46.595Z,950.83
2018-06-11T03:01:46.591Z,950.84
2018-06-11T03:02:46.584Z,950.78
2018-06-11T03:03:46.585Z,950.75
2018-06-11T03:04:46.575Z,950.79
2018-06-11T03:05:46.570Z,950.74
2018-06-11T03:06:46.566Z,950.79
2018-06-11T03:07:46.561Z,950.79
2018-06-11T03:08:46.559Z,950.77
2018-06-11T03:09:46.558Z,950.76
2018-06-11T03:10:46.549Z,950.77
2018-06-11T03:11:46.548Z,950.78
2018-06-11T03:12:46.543Z,950.79
2018-06-11T03:13:46.535Z,950.75
2018-06-11T03:14:46.529Z,950.79
2018-06-11T03:15:46.526Z,950.76
2018-06-11T03:16:46.521Z,950.78
2018-06-11T03:17:46.516Z,950.78
2018-06-11T03:18:46.512Z,950.78
2018-06-11T03:19:46.507Z,950.85
2018-06-11T03:20:46.501Z,950.81
2018-06-11T03:21:46.498Z,950.81
2018-06-11T03:22:46.493Z,950.79
2018-06-11T03:23:46.531Z,950.8
2018-06-11T03:24:46.483Z,950.78
2018-06-11T03:25:46.480Z,950.8
2018-06-11T03:26:46.475Z,950.8
2018-06-11T03:27:46.471Z,950.78
2018-06-11T03:28:46.467Z,950.79
2018-06-11T03:29:46.461Z,950.81
2018-06-11T03:30:46.455Z,950.81
2018-06-11T03:31:46.452Z,950.79
2018-06-11T03:32:46.446Z,950.8
2018-06-11T03:33:46.442Z,950.83
2018-06-11T03:34:46.438Z,950.86
2018-06-11T03:35:46.436Z,950.87
2018-06-11T03:36:46.430Z,950.85
2018-06-11T03:37:46.424Z,950.88
2018-06-11T03:38:46.419Z,950.88
2018-06-11T03:39:46.416Z,950.92
2018-06-11T03:40:46.411Z,950.91
2018-06-11T03:41:46.406Z,950.89
2018-06-11T03:42:46.402Z,950.88
2018-06-11T03:43:46.401Z,950.85
2018-06-11T03:44:46.393Z,950.84
2018-06-11T03:45:46.389Z,950.85
2018-06-11T03:46:46.383Z,950.88
2018-06-11T03:47:46.381Z,950.85
2018-06-11T03:48:46.376Z,950.85
2018-06-11T03:49:46.370Z,950.88
2018-06-11T03:50:46.366Z,950.87
2018-06-11T03:51:46.366Z,950.89
2018-06-11T03:52:46.397Z,950.89
2018-06-11T03:53:46.353Z,950.89
2018-06-11T03:54:46.348Z,950.88
2018-06-11T03:55:46.346Z,950.91
2018-06-11T03:56:46.340Z,950.91
2018-06-11T03:57:46.338Z,950.91
2018-06-11T03:58:46.333Z,950.92
2018-06-11T03:59:46.327Z,950.9
2018-06-11T04:00:46.373Z,950.89
2018-06-11T04:01:46.320Z,950.88
2018-06-11T04:02:46.315Z,950.89
2018-06-11T04:03:46.314Z,950.9
2018-06-11T04:04:46.306Z,950.88
2018-06-11T04:05:46.304Z,950.9
2018-06-11T04:06:46.299Z,950.86
2018-06-11T04:07:46.297Z,950.85
2018-06-11T04:08:46.291Z,950.83
2018-06-11T04:09:46.288Z,950.84
2018-06-11T04:10:46.327Z,950.89
2018-06-11T04:11:46.281Z,950.87
2018-06-11T04:12:46.276Z,950.84
2018-06-11T04:13:46.273Z,950.81
2018-06-11T04:14:46.269Z,950.81
2018-06-11T04:15:46.264Z,950.81
2018-06-11T04:16:46.263Z,950.79
2018-06-11T04:17:46.257Z,950.78
2018-06-11T04:18:46.253Z,950.79
2018-06-11T04:19:46.249Z,950.74
2018-06-11T04:20:46.248Z,950.76
2018-06-11T04:21:46.245Z,950.75
2018-06-11T04:22:46.241Z,950.74
2018-06-11T04:23:46.237Z,950.75
2018-06-11T04:24:46.234Z,950.78
2018-06-11T04:25:46.230Z,950.77
2018-06-11T04:26:46.226Z,950.77
2018-06-11T04:27:46.223Z,950.83
2018-06-11T04:28:46.221Z,950.79
2018-06-11T04:29:46.224Z,950.83
2018-06-11T04:30:46.214Z,950.84
2018-06-11T04:31:46.210Z,950.84
2018-06-11T04:32:46.208Z,950.79
2018-06-11T04:33:46.204Z,950.85
2018-06-11T04:34:46.201Z,950.83
2018-06-11T04:35:46.200Z,950.8
2018-06-11T04:36:46.196Z,950.83
2018-06-11T04:37:46.192Z,950.84
2018-06-11T04:38:46.190Z,950.81
2018-06-11T04:39:46.186Z,950.78
2018-06-11T04:40:46.184Z,950.83
2018-06-11T04:41:46.180Z,950.84
2018-06-11T04:42:46.178Z,950.81
2018-06-11T04:43:46.176Z,950.83
2018-06-11T04:44:46.173Z,950.83
2018-06-11T04:45:46.173Z,950.8
2018-06-11T04:46:46.166Z,950.82
2018-06-11T04:47:46.165Z,950.81
2018-06-11T04:48:46.161Z,950.8
2018-06-11T04:49:46.159Z,950.84
2018-06-11T04:50:46.158Z,950.87
2018-06-11T04:51:46.154Z,950.88
2018-06-11T04:52:46.151Z,950.91
2018-06-11T04:53:46.148Z,950.96
2018-06-11T04:54:46.146Z,950.95
2018-06-11T04:55:46.143Z,950.93
2018-06-11T04:56:46.140Z,950.97
2018-06-11T04:57:46.141Z,951.01
2018-06-11T04:58:46.135Z,950.98
2018-06-11T04:59:46.132Z,950.94
2018-06-11T05:00:46.131Z,950.92
2018-06-11T05:01:46.127Z,950.92
2018-06-11T05:02:46.124Z,950.93
2018-06-11T05:03:46.122Z,950.9
2018-06-11T05:04:46.120Z,950.9
2018-06-11T05:05:46.117Z,950.91
2018-06-11T05:06:46.118Z,950.9
2018-06-11T05:07:46.113Z,950.87
2018-06-11T05:08:46.109Z,950.92
2018-06-11T05:09:46.107Z,950.94
2018-06-11T05:10:46.104Z,950.95
2018-06-11T05:11:46.101Z,950.98
2018-06-11T05:12:46.100Z,950.98
2018-06-11T05:13:46.097Z,950.97
2018-06-11T05:14:46.095Z,950.94
2018-06-11T05:15:46.092Z,950.96
2018-06-11T05:16:46.091Z,950.94
2018-06-11T05:17:46.095Z,950.96
2018-06-11T05:18:46.084Z,950.93
2018-06-11T05:19:46.082Z,950.96
2018-06-11T05:20:46.081Z,950.95
2018-06-11T05:21:46.077Z,951.01
2018-06-11T05:22:46.075Z,950.98
2018-06-11T05:23:46.072Z,951
2018-06-11T05:24:46.072Z,950.96
2018-06-11T05:25:46.068Z,950.96
2018-06-11T05:26:46.066Z,950.97
2018-06-11T05:27:46.065Z,950.93
2018-06-11T05:28:46.081Z,950.95
2018-06-11T05:29:46.062Z,950.93
2018-06-11T05:30:46.059Z,950.93
2018-06-11T05:31:46.055Z,950.88
2018-06-11T05:32:46.054Z,950.87
2018-06-11T05:33:46.052Z,950.81
2018-06-11T05:34:46.066Z,950.81
2018-06-11T05:35:46.048Z,950.79
2018-06-11T05:36:46.045Z,950.79
2018-06-11T05:37:46.045Z,950.77
2018-06-11T05:38:46.043Z,950.75
2018-06-11T05:39:46.040Z,950.76
2018-06-11T05:40:46.038Z,950.78
2018-06-11T05:41:46.036Z,950.82
2018-06-11T05:42:46.034Z,950.79
2018-06-11T05:43:46.030Z,950.8
2018-06-11T05:44:46.031Z,950.77
2018-06-11T05:45:46.029Z,950.71
2018-06-11T05:46:46.028Z,950.68
2018-06-11T05:47:46.024Z,950.65
2018-06-11T05:48:46.023Z,950.61
2018-06-11T05:49:46.023Z,950.6
2018-06-11T05:50:46.020Z,950.59
2018-06-11T05:51:46.018Z,950.61
2018-06-11T05:52:46.017Z,950.64
2018-06-11T05:53:46.017Z,950.64
2018-06-11T05:54:46.013Z,950.65
2018-06-11T05:55:46.012Z,950.71
2018-06-11T05:56:46.009Z,950.68
2018-06-11T05:57:46.008Z,950.7
2018-06-11T05:58:46.006Z,950.71
2018-06-11T05:59:46.005Z,950.75
2018-06-11T06:00:46.003Z,950.71
2018-06-11T06:01:46.001Z,950.69
2018-06-11T06:02:46.000Z,950.73
2018-06-11T06:03:45.999Z,950.71
2018-06-11T06:04:45.998Z,950.71
2018-06-11T06:05:45.995Z,950.75
2018-06-11T06:06:45.995Z,950.78
2018-06-11T06:07:45.993Z,950.81
2018-06-11T06:08:46.053Z,950.8
2018-06-11T06:09:45.991Z,950.84
2018-06-11T06:10:45.990Z,950.82
2018-06-11T06:11:45.989Z,950.82
2018-06-11T06:12:45.988Z,950.84
2018-06-11T06:13:45.987Z,950.79
2018-06-11T06:14:45.989Z,950.76
2018-06-11T06:15:45.986Z,950.72
2018-06-11T06:16:45.985Z,950.76
2018-06-11T06:17:45.982Z,950.81
2018-06-11T06:18:45.981Z,950.78
2018-06-11T06:19:45.981Z,950.77
2018-06-11T06:20:45.981Z,950.82
2018-06-11T06:21:45.980Z,950.81
2018-06-11T06:22:45.979Z,950.81
2018-06-11T06:23:45.979Z,950.83
2018-06-11T06:24:45.977Z,950.77
2018-06-11T06:25:45.979Z,950.85
2018-06-11T06:26:46.007Z,950.82
2018-06-11T06:27:45.975Z,950.78
2018-06-11T06:28:45.974Z,950.82
2018-06-11T06:29:45.974Z,950.8
2018-06-11T06:30:45.974Z,950.82
2018-06-11T06:31:45.973Z,950.78
2018-06-11T06:32:45.977Z,950.77
2018-06-11T06:33:45.975Z,950.79
2018-06-11T06:34:46.043Z,950.8
2018-06-11T06:35:45.972Z,950.79
2018-06-11T06:36:45.972Z,950.79
2018-06-11T06:37:45.971Z,950.81
2018-06-11T06:38:45.971Z,950.85
2018-06-11T06:39:45.970Z,950.8
2018-06-11T06:40:45.970Z,950.77
2018-06-11T06:41:45.971Z,950.79
2018-06-11T06:42:45.969Z,950.76
2018-06-11T06:43:45.972Z,950.78
2018-06-11T06:44:45.973Z,950.71
2018-06-11T06:45:45.971Z,950.7
2018-06-11T06:46:45.975Z,950.67
2018-06-11T06:47:45.976Z,950.68
2018-06-11T06:48:45.972Z,950.63
2018-06-11T06:49:45.971Z,950.69
2018-06-11T06:50:45.972Z,950.67
2018-06-11T06:51:45.976Z,950.65
2018-06-11T06:52:45.978Z,950.68
2018-06-11T06:53:45.975Z,950.69
2018-06-11T06:54:45.977Z,950.65
2018-06-11T06:55:45.978Z,950.68
2018-06-11T06:56:45.978Z,950.73
2018-06-11T06:57:45.978Z,950.7
2018-06-11T06:58:45.978Z,950.69
2018-06-11T06:59:45.980Z,950.74
2018-06-11T07:00:45.981Z,950.72
2018-06-11T07:01:45.981Z,950.71
2018-06-11T07:02:45.985Z,950.77
2018-06-11T07:03:45.981Z,950.74
2018-06-11T07:04:45.983Z,950.75
2018-06-11T07:05:45.984Z,950.8
2018-06-11T07:06:45.992Z,950.76
2018-06-11T07:07:45.988Z,950.72
2018-06-11T07:08:45.990Z,950.73
2018-06-11T07:09:45.991Z,950.75
2018-06-11T07:10:45.995Z,950.72
2018-06-11T07:11:45.995Z,950.73
2018-06-11T07:12:45.998Z,950.74
2018-06-11T07:13:46.047Z,950.72
2018-06-11T07:14:46.001Z,950.75
2018-06-11T07:15:46.009Z,950.77
2018-06-11T07:16:46.008Z,950.74
2018-06-11T07:17:46.012Z,950.75
2018-06-11T07:18:46.014Z,950.71
2018-06-11T07:19:46.016Z,950.67
2018-06-11T07:20:46.021Z,950.72
2018-06-11T07:21:46.023Z,950.73
2018-06-11T07:22:46.024Z,950.73
2018-06-11T07:23:46.026Z,950.72
2018-06-11T07:24:46.029Z,950.77
2018-06-11T07:25:46.032Z,950.76
2018-06-11T07:26:46.034Z,950.76
2018-06-11T07:27:46.037Z,950.76
2018-06-11T07:28:46.039Z,950.76
2018-06-11T07:29:46.041Z,950.79
2018-06-11T07:30:46.041Z,950.79
2018-06-11T07:31:46.043Z,950.8
2018-06-11T07:32:46.046Z,950.79
2018-06-11T07:33:46.044Z,950.85
2018-06-11T07:34:46.048Z,950.85
2018-06-11T07:35:46.049Z,950.88
2018-06-11T07:36:46.049Z,950.9
2018-06-11T07:37:46.051Z,950.89
2018-06-11T07:38:46.052Z,950.88
2018-06-11T07:39:46.054Z,950.91
2018-06-11T07:40:46.052Z,950.95
2018-06-11T07:41:46.055Z,950.99
2018-06-11T07:42:46.055Z,951.01
2018-06-11T07:43:46.056Z,950.97
2018-06-11T07:44:46.057Z,951
2018-06-11T07:45:46.059Z,951.02
2018-06-11T07:46:46.058Z,951.01
2018-06-11T07:47:46.056Z,950.99
2018-06-11T07:48:46.058Z,950.95
2018-06-11T07:49:46.058Z,950.92
2018-06-11T07:50:46.101Z,950.92
2018-06-11T07:51:46.100Z,950.98
2018-06-11T07:52:46.058Z,950.97
2018-06-11T07:53:46.060Z,950.95
2018-06-11T07:54:46.060Z,950.96
2018-06-11T07:55:46.060Z,950.97
2018-06-11T07:56:46.065Z,950.98
2018-06-11T07:57:46.062Z,951.01
2018-06-11T07:58:46.060Z,951.05
2018-06-11T07:59:46.061Z,951.02
2018-06-11T08:00:46.059Z,950.99
2018-06-11T08:01:46.060Z,951.02
2018-06-11T08:02:46.061Z,951.03
2018-06-11T08:03:46.059Z,951.02
2018-06-11T08:04:46.060Z,950.98
2018-06-11T08:05:46.060Z,951.02
2018-06-11T08:06:46.061Z,951.04
2018-06-11T08:07:46.060Z,951.02
2018-06-11T08:08:46.060Z,951.06
2018-06-11T08:09:46.060Z,951.06
2018-06-11T08:10:46.062Z,951.07
2018-06-11T08:11:46.061Z,951.09
2018-06-11T08:12:46.062Z,951.11
2018-06-11T08:13:46.062Z,951.1
2018-06-11T08:14:46.061Z,951.12
2018-06-11T08:15:46.061Z,951.12
2018-06-11T08:16:46.065Z,951.16
2018-06-11T08:17:46.062Z,951.12
2018-06-11T08:18:46.062Z,951.16
2018-06-11T08:19:46.063Z,951.19
2018-06-11T08:20:46.089Z,951.2
2018-06-11T08:21:46.062Z,951.21
2018-06-11T08:22:46.062Z,951.24
2018-06-11T08:23:46.063Z,951.27
2018-06-11T08:24:46.062Z,951.23
2018-06-11T08:25:46.064Z,951.27
2018-06-11T08:26:46.061Z,951.28
2018-06-11T08:27:46.063Z,951.27
2018-06-11T08:28:46.063Z,951.28
2018-06-11T08:29:46.064Z,951.28
2018-06-11T08:30:46.064Z,951.28
2018-06-11T08:31:46.061Z,951.29
2018-06-11T08:32:46.062Z,951.28
2018-06-11T08:33:46.103Z,951.3
2018-06-11T08:34:46.062Z,951.29
2018-06-11T08:35:46.061Z,951.35
2018-06-11T08:36:46.065Z,951.3
2018-06-11T08:37:46.062Z,951.29
2018-06-11T08:38:46.094Z,951.29
2018-06-11T08:39:46.061Z,951.28
2018-06-11T08:40:46.062Z,951.26
2018-06-11T08:41:46.062Z,951.24
2018-06-11T08:42:46.062Z,951.29
2018-06-11T08:43:46.062Z,951.29
2018-06-11T08:44:46.064Z,951.28
2018-06-11T08:45:46.063Z,951.32
2018-06-11T08:46:46.061Z,951.32
2018-06-11T08:47:46.062Z,951.28
2018-06-11T08:48:46.062Z,951.33
2018-06-11T08:49:46.063Z,951.32
2018-06-11T08:50:46.062Z,951.33
2018-06-11T08:51:46.064Z,951.32
2018-06-11T08:52:46.069Z,951.31
2018-06-11T08:53:46.063Z,951.31
2018-06-11T08:54:46.065Z,951.27
2018-06-11T08:55:46.065Z,951.28
2018-06-11T08:56:46.067Z,951.29
2018-06-11T08:57:46.067Z,951.25
2018-06-11T08:58:46.068Z,951.29
2018-06-11T08:59:46.117Z,951.25
2018-06-11T09:00:46.068Z,951.3
2018-06-11T09:01:46.069Z,951.27
2018-06-11T09:02:46.071Z,951.31
2018-06-11T09:03:46.071Z,951.32
2018-06-11T09:04:46.072Z,951.26
2018-06-11T09:05:46.072Z,951.26
2018-06-11T09:06:46.074Z,951.25
2018-06-11T09:07:46.080Z,951.27
2018-06-11T09:08:46.075Z,951.25
2018-06-11T09:09:46.078Z,951.25
2018-06-11T09:10:46.077Z,951.27
2018-06-11T09:11:46.080Z,951.23
2018-06-11T09:12:46.078Z,951.18
2018-06-11T09:13:46.079Z,951.21
2018-06-11T09:14:46.082Z,951.18
2018-06-11T09:15:46.080Z,951.18
2018-06-11T09:16:46.081Z,951.23
2018-06-11T09:17:46.083Z,951.24
2018-06-11T09:18:46.083Z,951.25
2018-06-11T09:19:46.084Z,951.18
2018-06-11T09:20:46.085Z,951.22
2018-06-11T09:21:46.089Z,951.23
2018-06-11T09:22:46.092Z,951.26
2018-06-11T09:23:46.092Z,951.21
2018-06-11T09:24:46.092Z,951.17
2018-06-11T09:25:46.094Z,951.2
2018-06-11T09:26:46.094Z,951.2
2018-06-11T09:27:46.096Z,951.22
2018-06-11T09:28:46.098Z,951.18
2018-06-11T09:29:46.101Z,951.21
2018-06-11T09:30:46.102Z,951.18
2018-06-11T09:31:46.104Z,951.21
2018-06-11T09:32:46.110Z,951.25
2018-06-11T09:33:46.108Z,951.21
2018-06-11T09:34:46.110Z,951.19
2018-06-11T09:35:46.118Z,951.19
2018-06-11T09:36:46.116Z,951.14
2018-06-11T09:37:46.117Z,951.17
2018-06-11T09:38:46.120Z,951.16
2018-06-11T09:39:46.121Z,951.11
2018-06-11T09:40:46.125Z,951.08
2018-06-11T09:41:46.127Z,951.07
2018-06-11T09:42:46.130Z,951.12
2018-06-11T09:43:46.165Z,951.14
2018-06-11T09:44:46.134Z,951.11
2018-06-11T09:45:46.137Z,951.1
2018-06-11T09:46:46.139Z,951.11
2018-06-11T09:47:46.141Z,951.13
2018-06-11T09:48:46.144Z,951.11
2018-06-11T09:49:46.147Z,951.12
2018-06-11T09:50:46.152Z,951.17
2018-06-11T09:51:46.152Z,951.12
2018-06-11T09:52:46.153Z,951.16
2018-06-11T09:53:46.156Z,951.1
2018-06-11T09:54:46.157Z,951.18
2018-06-11T09:55:46.201Z,951.12
2018-06-11T09:56:46.165Z,951.12
2018-06-11T09:57:46.168Z,951.14
2018-06-11T09:58:46.167Z,951.17
2018-06-11T09:59:46.170Z,951.16
2018-06-11T10:00:46.178Z,951.18
2018-06-11T10:01:46.174Z,951.15
2018-06-11T10:02:46.177Z,951.17
2018-06-11T10:03:46.180Z,951.13
2018-06-11T10:04:46.181Z,951.11
2018-06-11T10:05:46.184Z,951.07
2018-06-11T10:06:46.184Z,951.08
2018-06-11T10:07:46.186Z,951.12
2018-06-11T10:08:46.191Z,951.06
2018-06-11T10:09:46.193Z,951.06
2018-06-11T10:10:46.194Z,951.07
2018-06-11T10:11:46.200Z,951.06
2018-06-11T10:12:46.198Z,951.05
2018-06-11T10:13:46.200Z,951.08
2018-06-11T10:14:46.201Z,951.05
2018-06-11T10:15:46.204Z,951.04
2018-06-11T10:16:46.207Z,951.03
2018-06-11T10:17:46.208Z,950.98
2018-06-11T10:18:46.211Z,951.01
2018-06-11T10:19:46.214Z,951
2018-06-11T10:20:46.222Z,950.94
2018-06-11T10:21:46.218Z,950.96
2018-06-11T10:22:46.221Z,951
2018-06-11T10:23:46.227Z,950.95
2018-06-11T10:24:46.274Z,950.96
2018-06-11T10:25:46.227Z,950.9
2018-06-11T10:26:46.228Z,950.87
2018-06-11T10:27:46.231Z,950.84
2018-06-11T10:28:46.233Z,950.86
2018-06-11T10:29:46.236Z,950.81
2018-06-11T10:30:46.237Z,950.85
2018-06-11T10:31:46.242Z,950.86
2018-06-11T10:32:46.242Z,950.85
2018-06-11T10:33:46.245Z,950.84
2018-06-11T10:34:46.246Z,950.85
2018-06-11T10:35:46.251Z,950.81
2018-06-11T10:36:46.252Z,950.84
2018-06-11T10:37:46.254Z,950.83
2018-06-11T10:38:46.256Z,950.86
2018-06-11T10:39:46.257Z,950.89
2018-06-11T10:40:46.260Z,950.91
2018-06-11T10:41:46.263Z,950.93
2018-06-11T10:42:46.266Z,950.98
2018-06-11T10:43:46.266Z,950.97
2018-06-11T10:44:46.270Z,950.97
2018-06-11T10:45:46.271Z,951.07
2018-06-11T10:46:46.273Z,951.07
2018-06-11T10:47:46.278Z,951.07
2018-06-11T10:48:46.278Z,951.12
2018-06-11T10:49:46.281Z,951.14
2018-06-11T10:50:46.283Z,951.1
2018-06-11T10:51:46.286Z,951.11
2018-06-11T10:52:46.287Z,951.13
2018-06-11T10:53:46.289Z,951.08
2018-06-11T10:54:46.291Z,951.06
2018-06-11T10:55:46.294Z,951.05
2018-06-11T10:56:46.296Z,950.97
2018-06-11T10:57:46.295Z,950.92
2018-06-11T10:58:46.298Z,950.89
2018-06-11T10:59:46.306Z,950.92
2018-06-11T11:00:46.304Z,950.9
2018-06-11T11:01:46.306Z,950.95
2018-06-11T11:02:46.307Z,951.03
2018-06-11T11:03:46.309Z,951.02
2018-06-11T11:04:46.311Z,950.97
2018-06-11T11:05:46.313Z,951.03
2018-06-11T11:06:46.317Z,951
2018-06-11T11:07:46.316Z,950.98
2018-06-11T11:08:46.322Z,950.93
2018-06-11T11:09:46.327Z,950.92
2018-06-11T11:10:46.321Z,950.94
2018-06-11T11:11:46.324Z,950.92
2018-06-11T11:12:46.326Z,950.88
2018-06-11T11:13:46.327Z,950.92
2018-06-11T11:14:46.329Z,950.88
2018-06-11T11:15:46.332Z,950.83
2018-06-11T11:16:46.332Z,950.83
2018-06-11T11:17:46.334Z,950.85
2018-06-11T11:18:46.334Z,950.8
2018-06-11T11:19:46.335Z,950.82
2018-06-11T11:20:46.338Z,950.76
2018-06-11T11:21:46.339Z,950.79
2018-06-11T11:22:46.342Z,950.79
2018-06-11T11:23:46.342Z,950.77
2018-06-11T11:24:46.344Z,950.81
2018-06-11T11:25:46.347Z,950.84
2018-06-11T11:26:46.348Z,950.81
2018-06-11T11:27:46.355Z,950.78
2018-06-11T11:28:46.350Z,950.71
2018-06-11T11:29:46.354Z,950.7
2018-06-11T11:30:46.353Z,950.68
2018-06-11T11:31:46.356Z,950.72
2018-06-11T11:32:46.357Z,950.71
2018-06-11T11:33:46.407Z,950.73
2018-06-11T11:34:46.360Z,950.75
2018-06-11T11:35:46.370Z,950.7
2018-06-11T11:36:46.364Z,950.66
2018-06-11T11:37:46.365Z,950.67
2018-06-11T11:38:46.366Z,950.64
2018-06-11T11:39:46.369Z,950.62
2018-06-11T11:40:46.371Z,950.57
2018-06-11T11:41:46.372Z,950.53
2018-06-11T11:42:46.372Z,950.49
2018-06-11T11:43:46.374Z,950.51
2018-06-11T11:44:46.380Z,950.52
2018-06-11T11:45:46.377Z,950.5
2018-06-11T11:46:46.379Z,950.5
2018-06-11T11:47:46.380Z,950.46
2018-06-11T11:48:46.385Z,950.49
2018-06-11T11:49:46.382Z,950.47
2018-06-11T11:50:46.385Z,950.42
2018-06-11T11:51:46.389Z,950.4
2018-06-11T11:52:46.392Z,950.39
2018-06-11T11:53:46.393Z,950.35
2018-06-11T11:54:46.390Z,950.28
2018-06-11T11:55:46.394Z,950.35
2018-06-11T11:56:46.401Z,950.3
2018-06-11T11:57:46.397Z,950.3
2018-06-11T11:58:46.397Z,950.31
2018-06-11T11:59:46.403Z,950.3
2018-06-11T12:00:46.403Z,950.29
2018-06-11T12:01:46.434Z,950.29
2018-06-11T12:02:46.409Z,950.31
2018-06-11T12:03:46.405Z,950.34
2018-06-11T12:04:46.406Z,950.32
2018-06-11T12:05:46.409Z,950.35
2018-06-11T12:06:46.439Z,950.36
2018-06-11T12:07:46.410Z,950.33
2018-06-11T12:08:46.413Z,950.35
2018-06-11T12:09:46.414Z,950.36
2018-06-11T12:10:46.417Z,950.41
2018-06-11T12:11:46.418Z,950.38
2018-06-11T12:12:46.423Z,950.36
2018-06-11T12:13:46.455Z,950.34
2018-06-11T12:14:46.423Z,950.28
2018-06-11T12:15:46.425Z,950.27
2018-06-11T12:16:46.426Z,950.26
2018-06-11T12:17:46.428Z,950.28
2018-06-11T12:18:46.431Z,950.27
2018-06-11T12:19:46.432Z,950.31
2018-06-11T12:20:46.436Z,950.27
2018-06-11T12:21:46.435Z,950.3
2018-06-11T12:22:46.439Z,950.29
2018-06-11T12:23:46.440Z,950.26
2018-06-11T12:24:46.442Z,950.29
2018-06-11T12:25:46.444Z,950.23
2018-06-11T12:26:46.446Z,950.18
2018-06-11T12:27:46.451Z,950.22
2018-06-11T12:28:46.452Z,950.17
2018-06-11T12:29:46.451Z,950.18
2018-06-11T12:30:46.455Z,950.18
2018-06-11T12:31:46.457Z,950.16